createdAt,value
2023-06-19T00:02:42.512Z,98673.09
2023-06-19T00:07:45.238Z,98676.38
2023-06-19T00:12:49.331Z,98673.44
2023-06-19T00:17:52.011Z,98678.91
2023-06-19T00:22:54.842Z,98681.47
2023-06-19T00:27:58.860Z,98677.63
2023-06-19T00:33:04.310Z,98669.22
2023-06-19T00:38:07.706Z,98673.41
2023-06-19T00:43:11.815Z,98677.28
2023-06-19T00:48:14.565Z,98678.66
2023-06-19T00:53:17.267Z,98690.97
2023-06-19T00:58:22.191Z,98701.34
2023-06-19T01:03:24.887Z,98699.69
2023-06-19T01:08:44.093Z,98702.72
2023-06-19T01:13:51.419Z,98704.09
2023-06-19T01:18:54.155Z,98707.91
2023-06-19T01:23:58.210Z,98696.50
2023-06-19T01:29:01.021Z,98690.22
2023-06-19T01:34:06.637Z,98692.94
2023-06-19T01:39:11.332Z,98685.88
2023-06-19T01:44:14.023Z,98688.06
2023-06-19T01:49:16.782Z,98700.34
2023-06-19T01:54:20.828Z,98709.09
2023-06-19T01:59:24.676Z,98704.78
2023-06-19T02:04:27.432Z,98700.97
2023-06-19T02:09:31.470Z,98700.22
2023-06-19T02:14:34.158Z,98710.00
2023-06-19T02:19:37.436Z,98722.56
2023-06-19T02:24:41.494Z,98733.44
2023-06-19T02:29:44.290Z,98744.34
2023-06-19T02:34:47.207Z,98753.91
2023-06-19T02:39:51.243Z,98762.63
2023-06-19T02:44:53.947Z,98776.25
2023-06-19T02:49:56.650Z,98778.69
2023-06-19T02:55:01.070Z,98773.22
2023-06-19T03:00:07.016Z,98781.16
2023-06-19T03:05:10.754Z,98776.78
2023-06-19T03:10:14.855Z,98786.06
2023-06-19T03:15:18.250Z,98776.78
2023-06-19T03:20:25.210Z,98789.06
2023-06-19T03:25:35.882Z,98792.91
2023-06-19T03:30:39.381Z,98803.56
2023-06-19T03:35:42.791Z,98804.38
2023-06-19T03:40:53.517Z,98816.09
2023-06-19T03:45:57.283Z,98839.00
2023-06-19T03:51:01.797Z,98846.38
2023-06-19T03:56:06.557Z,98855.34
2023-06-19T04:01:09.480Z,98861.88
2023-06-19T04:06:12.195Z,98870.06
2023-06-19T04:11:17.637Z,98873.88
2023-06-19T04:16:21.433Z,98887.25
2023-06-19T04:21:24.628Z,98893.75
2023-06-19T04:26:28.712Z,98899.75
2023-06-19T04:31:31.862Z,98903.03
2023-06-19T04:36:34.721Z,98898.91
2023-06-19T04:41:39.470Z,98907.06
2023-06-19T04:46:42.715Z,98920.16
2023-06-19T04:51:45.463Z,98912.56
2023-06-19T04:56:49.446Z,98909.88
2023-06-19T05:01:54.905Z,98921.84
2023-06-19T05:06:57.614Z,98922.13
2023-06-19T05:12:01.630Z,98918.59
2023-06-19T05:17:04.481Z,98921.03
2023-06-19T05:22:07.752Z,98928.38
2023-06-19T05:27:11.799Z,98926.19
2023-06-19T05:32:14.974Z,98935.16
2023-06-19T05:37:18.176Z,98935.41
2023-06-19T05:42:22.212Z,98930.78
2023-06-19T05:47:26.857Z,98932.97
2023-06-19T05:52:29.835Z,98934.84
2023-06-19T05:57:34.634Z,98937.28
2023-06-19T06:02:37.369Z,98956.34
2023-06-19T06:07:41.586Z,98950.88
2023-06-19T06:12:45.978Z,98965.53
2023-06-19T06:17:48.643Z,98965.66
2023-06-19T06:22:51.442Z,98969.75
2023-06-19T06:27:55.424Z,98954.47
2023-06-19T06:32:58.115Z,98956.72
2023-06-19T06:38:00.834Z,98951.53
2023-06-19T06:43:04.852Z,98956.44
2023-06-19T06:48:08.123Z,98977.41
2023-06-19T06:53:10.961Z,98989.41
2023-06-19T06:58:15.373Z,98997.03
2023-06-19T07:03:19.128Z,99005.22
2023-06-19T07:08:21.976Z,99012.03
2023-06-19T07:13:26.764Z,99007.66
2023-06-19T07:18:29.612Z,99019.91
2023-06-19T07:23:32.336Z,99019.66
2023-06-19T07:28:37.244Z,99021.00
2023-06-19T07:33:39.950Z,99015.56
2023-06-19T07:38:42.597Z,99016.94
2023-06-19T07:43:46.661Z,99020.47
2023-06-19T07:48:49.364Z,99006.56
2023-06-19T07:53:52.036Z,99019.66
2023-06-19T07:58:56.180Z,99016.13
2023-06-19T08:03:58.934Z,99022.38
2023-06-19T08:09:01.612Z,99022.63
2023-06-19T08:14:05.696Z,99022.63
2023-06-19T08:19:08.353Z,99019.91
2023-06-19T08:24:11.034Z,99029.75
2023-06-19T08:29:15.206Z,99050.19
2023-06-19T08:34:17.884Z,99043.38
2023-06-19T08:39:21.284Z,99041.19
2023-06-19T08:44:25.373Z,99032.72
2023-06-19T08:49:28.602Z,99035.72
2023-06-19T08:54:31.384Z,99037.03
2023-06-19T08:59:35.502Z,99041.97
2023-06-19T09:04:38.142Z,99039.78
2023-06-19T09:09:46.545Z,99047.41
2023-06-19T09:14:50.546Z,99043.31
2023-06-19T09:19:54.039Z,99043.06
2023-06-19T09:25:02.151Z,99047.94
2023-06-19T09:30:17.574Z,99050.16
2023-06-19T09:35:21.873Z,99059.69
2023-06-19T09:40:26.276Z,99059.69
2023-06-19T09:45:31.538Z,99055.59
2023-06-19T09:50:35.664Z,99051.50
2023-06-19T09:55:39.870Z,99062.41
2023-06-19T10:00:44.986Z,99063.75
2023-06-19T10:05:47.724Z,99063.75
2023-06-19T10:10:50.800Z,99068.13
2023-06-19T10:15:54.802Z,99080.38
2023-06-19T10:20:57.572Z,99088.28
2023-06-19T10:26:03.007Z,99076.84
2023-06-19T10:31:09.139Z,99067.88
2023-06-19T10:36:16.267Z,99065.41
2023-06-19T10:41:19.023Z,99066.78
2023-06-19T10:46:24.931Z,99068.13
2023-06-19T10:51:28.758Z,99060.78
2023-06-19T10:56:31.451Z,99068.38
2023-06-19T11:01:45.177Z,99066.50
2023-06-19T11:06:51.322Z,99052.88
2023-06-19T11:12:00.727Z,99060.75
2023-06-19T11:17:05.340Z,99058.84
2023-06-19T11:22:08.921Z,99052.31
2023-06-19T11:27:18.782Z,99045.50
2023-06-19T11:32:26.213Z,99038.94
2023-06-19T11:37:31.486Z,99050.66
2023-06-19T11:42:34.614Z,99045.47
2023-06-19T11:47:38.986Z,99047.09
2023-06-19T11:52:42.051Z,99046.28
2023-06-19T11:57:44.846Z,99046.28
2023-06-19T12:02:49.321Z,99049.56
2023-06-19T12:07:52.283Z,99050.91
2023-06-19T12:12:56.009Z,99048.19
2023-06-19T12:18:00.029Z,99053.63
2023-06-19T12:23:02.944Z,99045.97
2023-06-19T12:28:09.271Z,99042.44
2023-06-19T12:33:13.548Z,99032.88
2023-06-19T12:38:16.244Z,99032.03
2023-06-19T12:43:18.921Z,99027.41
2023-06-19T12:48:22.932Z,99037.75
2023-06-19T12:53:29.952Z,99048.13
2023-06-19T12:58:32.747Z,99047.84
2023-06-19T13:03:36.837Z,99028.47
2023-06-19T13:08:39.582Z,99051.94
2023-06-19T13:13:42.261Z,99053.03
2023-06-19T13:18:46.281Z,99029.53
2023-06-19T13:23:50.118Z,99021.91
2023-06-19T13:28:52.853Z,99020.53
2023-06-19T13:33:56.838Z,99023.00
2023-06-19T13:38:59.628Z,99018.34
2023-06-19T13:44:02.771Z,99006.88
2023-06-19T13:49:06.867Z,99010.69
2023-06-19T13:54:09.558Z,99001.41
2023-06-19T13:59:12.287Z,99006.06
2023-06-19T14:04:16.264Z,99003.88
2023-06-19T14:09:18.995Z,99001.66
2023-06-19T14:14:21.850Z,98997.28
2023-06-19T14:19:26.284Z,99000.53
2023-06-19T14:24:29.076Z,98993.44
2023-06-19T14:29:56.708Z,98993.44
2023-06-19T14:35:00.713Z,98984.19
2023-06-19T14:40:03.495Z,98989.63
2023-06-19T14:45:06.677Z,98979.22
2023-06-19T14:50:11.361Z,98976.81
2023-06-19T14:55:14.004Z,98983.63
2023-06-19T15:00:17.052Z,98984.44
2023-06-19T15:05:21.280Z,98978.16
2023-06-19T15:10:24.449Z,98974.03
2023-06-19T15:15:27.452Z,98972.66
2023-06-19T15:20:31.736Z,98969.38
2023-06-19T15:25:34.489Z,98957.38
2023-06-19T15:30:37.220Z,98960.38
2023-06-19T15:35:42.385Z,98965.25
2023-06-19T15:40:45.344Z,98958.72
2023-06-19T15:45:48.128Z,98953.53
2023-06-19T15:50:52.200Z,98947.50
2023-06-19T15:55:54.882Z,98939.31
2023-06-19T16:00:57.582Z,98937.13
2023-06-19T16:06:07.789Z,98923.47
2023-06-19T16:11:12.088Z,98933.81
2023-06-19T16:16:14.852Z,98930.50
2023-06-19T16:21:19.588Z,98934.31
2023-06-19T16:26:22.276Z,98922.28
2023-06-19T16:31:25.086Z,98936.22
2023-06-19T16:36:29.103Z,98932.06
2023-06-19T16:41:31.830Z,98925.00
2023-06-19T16:46:34.585Z,98932.91
2023-06-19T16:51:38.667Z,98927.69
2023-06-19T16:56:41.364Z,98931.53
2023-06-19T17:01:44.420Z,98926.06
2023-06-19T17:06:48.537Z,98921.38
2023-06-19T17:11:52.879Z,98929.56
2023-06-19T17:16:55.840Z,98930.38
2023-06-19T17:21:59.924Z,98924.34
2023-06-19T17:27:02.692Z,98926.50
2023-06-19T17:32:06.057Z,98924.81
2023-06-19T17:37:10.284Z,98921.56
2023-06-19T17:42:12.977Z,98911.72
2023-06-19T17:47:16.682Z,98913.84
2023-06-19T17:52:20.864Z,98923.13
2023-06-19T17:57:23.999Z,98921.47
2023-06-19T18:02:26.874Z,98924.75
2023-06-19T18:07:30.970Z,98925.28
2023-06-19T18:12:33.883Z,98925.00
2023-06-19T18:17:36.655Z,98924.19
2023-06-19T18:22:40.804Z,98935.06
2023-06-19T18:27:43.493Z,98938.59
2023-06-19T18:32:46.253Z,98941.69
2023-06-19T18:37:50.436Z,98946.03
2023-06-19T18:42:53.193Z,98946.25
2023-06-19T18:47:55.900Z,98939.41
2023-06-19T18:53:00.065Z,98936.66
2023-06-19T18:58:02.770Z,98939.41
2023-06-19T19:03:05.535Z,98936.13
2023-06-19T19:08:11.509Z,98939.06
2023-06-19T19:13:14.253Z,98938.22
2023-06-19T19:18:17.112Z,98930.34
2023-06-19T19:23:21.265Z,98936.63
2023-06-19T19:28:24.008Z,98937.41
2023-06-19T19:33:26.839Z,98945.47
2023-06-19T19:38:30.959Z,98963.78
2023-06-19T19:43:33.802Z,98962.69
2023-06-19T19:48:36.564Z,98963.72
2023-06-19T19:53:40.621Z,98959.06
2023-06-19T19:58:43.309Z,98956.88
2023-06-19T20:03:46.716Z,98955.47
2023-06-19T20:08:50.859Z,98954.69
2023-06-19T20:13:53.549Z,98954.16
2023-06-19T20:18:56.298Z,98958.28
2023-06-19T20:24:00.528Z,98969.78
2023-06-19T20:29:03.307Z,98985.94
2023-06-19T20:34:07.345Z,98988.97
2023-06-19T20:39:11.393Z,98984.59
2023-06-19T20:44:14.722Z,98967.69
2023-06-19T20:49:17.556Z,98977.00
2023-06-19T20:54:21.649Z,98973.19
2023-06-19T20:59:24.308Z,98974.88
2023-06-19T21:04:27.028Z,98978.47
2023-06-19T21:09:31.323Z,98985.34
2023-06-19T21:14:35.170Z,98977.41
2023-06-19T21:19:37.859Z,98963.81
2023-06-19T21:24:42.074Z,98960.78
2023-06-19T21:29:44.901Z,98956.44
2023-06-19T21:34:47.622Z,98943.31
2023-06-19T21:39:51.615Z,98938.44
2023-06-19T21:44:54.341Z,98933.59
2023-06-19T21:49:57.234Z,98937.91
2023-06-19T21:55:01.383Z,98942.88
2023-06-19T22:00:05.843Z,98935.53
2023-06-19T22:05:08.981Z,98933.06
2023-06-19T22:10:13.656Z,98942.63
2023-06-19T22:15:16.445Z,98931.75
2023-06-19T22:20:19.402Z,98934.53
2023-06-19T22:25:23.957Z,98927.72
2023-06-19T22:30:27.006Z,98931.31
2023-06-19T22:35:29.998Z,98935.16
2023-06-19T22:40:34.655Z,98931.06
2023-06-19T22:45:37.464Z,98938.19
2023-06-19T22:50:40.198Z,98938.19
2023-06-19T22:55:44.260Z,98929.50
2023-06-19T23:00:47.672Z,98930.03
2023-06-19T23:05:50.369Z,98924.09
2023-06-19T23:10:54.426Z,98916.44
2023-06-19T23:15:57.155Z,98915.09
2023-06-19T23:20:59.865Z,98917.81
2023-06-19T23:26:03.981Z,98902.84
2023-06-19T23:31:07.118Z,98903.13
2023-06-19T23:36:09.788Z,98890.88
2023-06-19T23:41:13.798Z,98894.41
2023-06-19T23:46:18.644Z,98889.78
2023-06-19T23:51:21.663Z,98884.63
2023-06-19T23:56:25.698Z,98892.00
